Time;durP1;ratioP1;P1;durP2;ratioP2;P2;SDS_P1;SDS_P2;PMS_P1;PMS_P2;Temp;Humidity;BMP_temperature;BMP_pressure;BME280_temperature;BME280_humidity;BME280_pressure;Samples;Min_cycle;Max_cycle;Signal;HPM_P1;HPM_P2
2022/12/01 00:00:46;;;;;;;42.85;22.15;;;2.70;99.90;;;;;;5033080;28;20089;-76
2022/12/01 00:03:11;;;;;;;38.38;20.55;;;2.70;99.90;;;;;;5032024;28;20052;-76
2022/12/01 00:05:37;;;;;;;36.97;20.00;;;2.70;99.90;;;;;;5033209;28;20029;-77
2022/12/01 00:08:06;;;;;;;31.70;17.58;;;2.70;99.90;;;;;;5027477;28;20053;-77
2022/12/01 00:10:32;;;;;;;22.88;14.85;;;2.70;99.90;;;;;;5024870;28;20076;-74
2022/12/01 00:13:00;;;;;;;29.02;15.57;;;2.60;99.90;;;;;;5025733;28;20029;-74
2022/12/01 00:15:28;;;;;;;28.15;15.23;;;2.60;99.90;;;;;;5032538;28;20514;-76
2022/12/01 00:17:54;;;;;;;21.17;12.98;;;2.60;99.90;;;;;;5033014;28;20120;-75
2022/12/01 00:20:21;;;;;;;18.33;12.20;;;2.50;99.90;;;;;;5033257;28;20034;-77
2022/12/01 00:22:48;;;;;;;27.13;11.38;;;2.40;99.90;;;;;;5018763;28;20017;-77
2022/12/01 00:25:15;;;;;;;75.40;10.35;;;2.40;99.90;;;;;;5033101;28;20038;-76
2022/12/01 00:27:41;;;;;;;67.50;9.43;;;2.30;99.90;;;;;;5022246;28;20042;-76
2022/12/01 00:30:10;;;;;;;61.78;9.40;;;2.20;99.90;;;;;;5036318;28;20068;-76
2022/12/01 00:32:36;;;;;;;23.98;9.35;;;2.20;99.90;;;;;;5036674;28;20041;-76
2022/12/01 00:35:02;;;;;;;45.15;10.90;;;2.20;99.90;;;;;;5036938;28;20105;-77
2022/12/01 00:37:30;;;;;;;176.50;16.35;;;2.20;99.90;;;;;;5036348;28;20036;-76
2022/12/01 00:39:56;;;;;;;21.92;12.13;;;2.10;99.90;;;;;;5036825;28;20033;-76
2022/12/01 00:42:21;;;;;;;48.83;13.68;;;2.20;99.90;;;;;;5036748;28;20033;-75
2022/12/01 00:44:47;;;;;;;27.58;12.55;;;2.30;99.90;;;;;;5035590;28;20017;-77
2022/12/01 00:47:13;;;;;;;23.85;14.18;;;2.40;99.90;;;;;;5036039;28;20030;-75
2022/12/01 00:49:38;;;;;;;26.30;14.88;;;2.40;99.90;;;;;;5036455;28;20017;-75
2022/12/01 00:52:04;;;;;;;41.80;20.38;;;2.50;99.90;;;;;;5036368;28;20033;-76
2022/12/01 00:54:31;;;;;;;41.03;21.13;;;2.60;99.90;;;;;;5037402;28;20048;-75
2022/12/01 00:56:58;;;;;;;45.00;21.52;;;2.80;99.90;;;;;;5036145;28;20022;-77
2022/12/01 00:59:24;;;;;;;43.97;20.60;;;2.80;99.90;;;;;;5036543;28;20052;-76
2022/12/01 01:01:50;;;;;;;49.92;22.58;;;2.90;99.90;;;;;;5036246;28;20049;-76
2022/12/01 01:04:15;;;;;;;53.63;24.45;;;3.00;99.90;;;;;;5036616;28;20028;-77
2022/12/01 01:06:43;;;;;;;64.20;28.83;;;3.10;99.90;;;;;;5035941;28;20021;-75
2022/12/01 01:09:10;;;;;;;75.57;32.03;;;3.20;99.90;;;;;;5036667;28;20426;-76
2022/12/01 01:11:36;;;;;;;73.15;29.73;;;3.30;99.90;;;;;;5035990;28;20041;-76
2022/12/01 01:14:01;;;;;;;88.70;33.53;;;3.40;99.90;;;;;;5035335;28;20450;-76
2022/12/01 01:16:27;;;;;;;69.18;29.83;;;3.50;99.90;;;;;;5035996;28;20060;-75
2022/12/01 01:18:54;;;;;;;71.93;29.58;;;3.50;99.90;;;;;;5034767;28;20022;-75
2022/12/01 01:21:20;;;;;;;76.88;31.02;;;3.60;99.90;;;;;;5036737;28;20017;-76
2022/12/01 01:23:47;;;;;;;66.38;28.20;;;3.50;99.90;;;;;;5036161;28;20083;-76
2022/12/01 01:26:28;;;;;;;72.45;30.75;;;3.60;99.90;;;;;;5035869;28;20040;-76
2022/12/01 01:28:56;;;;;;;66.85;28.38;;;3.60;99.90;;;;;;5035937;28;20049;-75
2022/12/01 01:31:24;;;;;;;71.97;30.15;;;3.60;99.90;;;;;;5036206;28;20033;-76
2022/12/01 01:33:50;;;;;;;71.82;31.17;;;3.70;99.90;;;;;;5035157;28;20021;-76
2022/12/01 01:36:20;;;;;;;71.25;30.75;;;3.70;99.90;;;;;;5035456;28;20373;-76
2022/12/01 01:38:49;;;;;;;87.50;33.90;;;3.70;99.90;;;;;;5035846;28;20033;-76
2022/12/01 01:41:15;;;;;;;80.18;30.38;;;3.70;99.90;;;;;;5034890;28;20036;-77
2022/12/01 01:43:45;;;;;;;81.93;34.35;;;3.70;99.90;;;;;;5036245;28;20026;-76
2022/12/01 01:46:15;;;;;;;;;;;3.80;99.90;;;;;;5046845;28;20017;-75
2022/12/01 01:48:45;;;;;;;61.75;27.95;;;3.80;99.90;;;;;;5048789;28;19900;-75
2022/12/01 01:51:13;;;;;;;63.75;27.92;;;3.90;99.90;;;;;;5048562;28;20057;-76
2022/12/01 01:53:44;;;;;;;75.82;29.90;;;3.90;99.90;;;;;;5040579;28;20038;-77
2022/12/01 01:56:10;;;;;;;68.00;30.15;;;3.80;99.90;;;;;;5034849;28;20038;-76
2022/12/01 01:58:37;;;;;;;67.78;29.23;;;4.50;99.90;;;;;;5034761;28;20116;-74
2022/12/01 02:01:03;;;;;;;71.50;32.25;;;3.90;99.90;;;;;;5033965;28;20116;-76
2022/12/01 02:03:29;;;;;;;75.93;32.88;;;3.90;99.90;;;;;;5035113;28;20109;-77
2022/12/01 02:05:56;;;;;;;85.85;34.50;;;3.90;99.90;;;;;;5034449;28;20072;-76
2022/12/01 02:08:22;;;;;;;66.50;30.02;;;3.90;99.90;;;;;;5034104;28;20029;-75
2022/12/01 02:10:55;;;;;;;77.90;32.60;;;4.00;99.90;;;;;;5034671;28;20017;-76
2022/12/01 02:13:46;;;;;;;86.15;33.13;;;4.00;99.90;;;;;;5034861;28;20041;-76
2022/12/01 02:16:29;;;;;;;68.85;30.38;;;4.10;99.90;;;;;;5034275;28;20022;-76
2022/12/01 02:18:58;;;;;;;78.45;32.75;;;4.10;99.90;;;;;;5034369;28;20053;-76
2022/12/01 02:21:41;;;;;;;81.13;32.15;;;4.10;99.90;;;;;;5034574;28;20029;-76
2022/12/01 02:24:38;;;;;;;86.15;35.45;;;4.10;99.90;;;;;;5033614;28;20028;-76
2022/12/01 02:27:22;;;;;;;94.45;33.78;;;4.10;99.90;;;;;;5034374;28;20045;-76
2022/12/01 02:30:26;;;;;;;94.15;35.45;;;4.10;99.90;;;;;;5021857;28;20072;-76
2022/12/01 02:33:09;;;;;;;87.78;33.08;;;4.10;99.90;;;;;;5034502;28;20033;-76
2022/12/01 02:36:23;;;;;;;84.32;33.95;;;4.10;99.90;;;;;;5034619;28;20037;-76
2022/12/01 02:39:07;;;;;;;102.43;37.67;;;4.10;99.90;;;;;;4998406;28;20433;-76
2022/12/01 02:41:42;;;;;;;93.07;35.50;;;4.20;99.90;;;;;;5021540;28;20434;-76
2022/12/01 02:44:17;;;;;;;91.97;37.17;;;4.20;99.90;;;;;;5033649;28;20047;-75
2022/12/01 02:46:59;;;;;;;91.70;36.35;;;4.20;99.90;;;;;;5034752;28;20194;-77
2022/12/01 02:49:35;;;;;;;103.68;37.72;;;4.30;99.90;;;;;;5020628;28;20018;-76
2022/12/01 02:52:03;;;;;;;104.45;39.10;;;4.20;99.90;;;;;;5033490;28;20374;-74
2022/12/01 02:54:30;;;;;;;88.35;35.42;;;4.30;99.90;;;;;;5034128;28;20374;-75
2022/12/01 02:56:56;;;;;;;92.65;36.83;;;4.20;99.90;;;;;;5033599;28;20358;-76
2022/12/01 02:59:22;;;;;;;85.38;34.03;;;4.10;99.90;;;;;;5034336;28;20107;-76
2022/12/01 03:01:51;;;;;;;110.88;37.47;;;4.10;99.90;;;;;;5034158;28;20024;-76
2022/12/01 03:04:49;;;;;;;107.38;39.67;;;4.10;99.90;;;;;;5033282;28;20029;-76
2022/12/01 03:07:57;;;;;;;111.38;40.42;;;4.10;99.90;;;;;;5021941;28;20045;-76
2022/12/01 03:10:44;;;;;;;124.38;42.40;;;4.10;99.90;;;;;;4991723;28;20050;-75
2022/12/01 03:13:19;;;;;;;114.38;39.92;;;4.10;99.90;;;;;;5023220;28;20057;-77
2022/12/01 03:16:22;;;;;;;122.22;42.90;;;4.20;99.90;;;;;;5033716;28;20014;-76
2022/12/01 03:18:59;;;;;;;145.25;45.47;;;4.10;99.90;;;;;;5033297;28;20505;-76
2022/12/01 03:21:24;;;;;;;119.40;41.67;;;4.10;99.90;;;;;;5033940;28;20041;-74
2022/12/01 03:23:55;;;;;;;123.03;43.60;;;4.10;99.90;;;;;;5033197;28;20531;-77
2022/12/01 03:26:21;;;;;;;;;;;4.10;99.90;;;;;;5033368;28;20021;-75
2022/12/01 03:28:52;;;;;;;121.88;42.88;;;4.00;99.90;;;;;;5034041;28;19913;-76
2022/12/01 03:31:23;;;;;;;131.25;43.65;;;4.00;99.90;;;;;;5033830;28;20547;-75
2022/12/01 03:34:00;;;;;;;127.28;43.38;;;4.00;99.90;;;;;;5034036;28;20478;-76
2022/12/01 03:36:51;;;;;;;126.25;43.47;;;4.00;99.90;;;;;;5034329;28;20121;-76
2022/12/01 03:39:23;;;;;;;119.43;42.13;;;4.10;99.90;;;;;;5032175;28;20021;-76
2022/12/01 03:41:57;;;;;;;119.15;42.38;;;4.10;99.90;;;;;;5026453;28;20033;-76
2022/12/01 03:44:33;;;;;;;120.15;42.22;;;4.10;99.90;;;;;;5033069;28;20473;-76
2022/12/01 03:47:06;;;;;;;115.30;42.60;;;4.10;99.90;;;;;;5032676;28;20029;-76
2022/12/01 03:49:34;;;;;;;134.57;45.17;;;4.00;99.90;;;;;;5038500;28;20021;-75
2022/12/01 03:52:20;;;;;;;121.60;41.97;;;3.90;99.90;;;;;;5042004;28;20029;-76
2022/12/01 03:55:05;;;;;;;121.85;41.08;;;3.90;99.90;;;;;;5032542;28;20028;-75
2022/12/01 03:57:48;;;;;;;122.70;41.75;;;3.90;99.90;;;;;;5032878;28;20021;-76
2022/12/01 04:00:15;;;;;;;126.80;42.55;;;3.90;99.90;;;;;;5032389;28;20025;-75
2022/12/01 04:02:43;;;;;;;123.95;44.28;;;3.90;99.90;;;;;;5036099;28;20378;-75
2022/12/01 04:05:09;;;;;;;128.55;43.67;;;3.90;99.90;;;;;;5038170;28;20022;-76
2022/12/01 04:07:36;;;;;;;125.38;41.03;;;4.00;99.90;;;;;;5037436;28;20033;-76
2022/12/01 04:10:03;;;;;;;130.43;43.08;;;4.00;99.90;;;;;;5036892;28;20359;-76
2022/12/01 04:12:29;;;;;;;133.35;43.22;;;4.00;99.90;;;;;;5037023;28;20041;-76
2022/12/01 04:14:56;;;;;;;114.85;39.92;;;4.00;99.90;;;;;;5036029;28;20104;-76
2022/12/01 04:17:25;;;;;;;114.72;42.30;;;4.00;99.90;;;;;;5037417;28;20032;-77
2022/12/01 04:19:50;;;;;;;130.27;45.20;;;4.00;99.90;;;;;;5035015;28;20441;-76
2022/12/01 04:22:16;;;;;;;110.95;39.92;;;4.00;99.90;;;;;;5023907;28;20053;-75
2022/12/01 04:24:42;;;;;;;119.72;43.30;;;4.10;99.90;;;;;;5037731;28;20060;-76
2022/12/01 04:27:08;;;;;;;106.78;40.38;;;4.10;99.90;;;;;;5036860;28;20053;-74
2022/12/01 04:29:33;;;;;;;128.23;43.97;;;4.20;99.90;;;;;;5036614;28;20102;-75
2022/12/01 04:31:59;;;;;;;129.25;42.63;;;4.20;99.90;;;;;;5036920;28;20039;-75
2022/12/01 04:34:24;;;;;;;120.18;43.47;;;4.10;99.90;;;;;;5037262;28;20045;-76
2022/12/01 04:36:50;;;;;;;129.25;45.08;;;4.20;99.90;;;;;;5035657;28;20370;-77
2022/12/01 04:39:15;;;;;;;120.85;42.55;;;4.20;99.90;;;;;;5042082;28;20053;-77
2022/12/01 04:41:41;;;;;;;125.82;42.58;;;4.10;99.90;;;;;;5049969;28;20075;-78
2022/12/01 04:44:09;;;;;;;118.70;43.70;;;4.20;99.90;;;;;;5047106;28;20005;-76
2022/12/01 04:46:35;;;;;;;128.75;43.03;;;4.10;99.90;;;;;;5050305;28;20026;-77
2022/12/01 04:49:00;;;;;;;111.30;39.60;;;4.10;99.90;;;;;;5049034;28;20032;-76
2022/12/01 04:51:26;;;;;;;108.88;40.25;;;4.10;99.90;;;;;;5049543;28;20507;-78
2022/12/01 04:53:51;;;;;;;122.95;42.40;;;4.10;99.90;;;;;;5043363;28;20025;-79
2022/12/01 04:56:17;;;;;;;108.32;40.10;;;4.00;99.90;;;;;;5036803;28;20376;-78
2022/12/01 04:58:46;;;;;;;110.32;38.53;;;4.10;99.90;;;;;;5036679;28;20068;-78
2022/12/01 05:01:14;;;;;;;112.13;40.03;;;4.00;99.90;;;;;;5036373;28;20017;-76
2022/12/01 05:03:42;;;;;;;118.72;40.42;;;4.00;99.90;;;;;;5035733;28;20037;-76
2022/12/01 05:06:13;;;;;;;127.97;44.10;;;4.00;99.90;;;;;;5035903;28;20021;-78
2022/12/01 05:08:39;;;;;;;114.25;41.10;;;4.10;99.90;;;;;;5036653;28;20049;-78
2022/12/01 05:11:06;;;;;;;123.32;42.10;;;4.00;99.90;;;;;;5034826;28;20068;-77
2022/12/01 05:13:32;;;;;;;114.03;40.53;;;4.10;99.90;;;;;;5034426;28;20107;-76
2022/12/01 05:16:06;;;;;;;107.72;38.45;;;4.10;99.90;;;;;;5035458;28;20433;-77
2022/12/01 05:18:32;;;;;;;105.65;39.42;;;4.10;99.90;;;;;;5036207;28;20036;-76
2022/12/01 05:20:58;;;;;;;123.95;40.10;;;4.00;99.90;;;;;;5036153;28;20117;-77
2022/12/01 05:23:28;;;;;;;98.57;38.47;;;4.00;99.90;;;;;;5036161;28;20442;-77
2022/12/01 05:25:54;;;;;;;104.70;38.55;;;3.90;99.90;;;;;;5035149;28;20029;-76
2022/12/01 05:28:22;;;;;;;121.32;40.35;;;3.80;99.90;;;;;;5035642;28;20053;-77
2022/12/01 05:30:49;;;;;;;112.10;37.72;;;3.80;99.90;;;;;;5036225;28;20025;-77
2022/12/01 05:33:14;;;;;;;110.15;37.35;;;3.80;99.90;;;;;;5034814;28;20033;-76
2022/12/01 05:35:40;;;;;;;114.70;39.03;;;3.80;99.90;;;;;;5035914;28;20029;-77
2022/12/01 05:38:06;;;;;;;117.60;39.72;;;3.70;99.90;;;;;;5035585;28;20468;-77
2022/12/01 05:40:32;;;;;;;129.82;41.72;;;3.70;99.90;;;;;;5034927;28;20151;-77
2022/12/01 05:42:58;;;;;;;100.53;35.63;;;3.60;99.90;;;;;;5035070;28;20036;-76
2022/12/01 05:45:24;;;;;;;135.90;41.88;;;3.50;99.90;;;;;;5035312;28;20029;-77
2022/12/01 05:47:54;;;;;;;98.90;38.67;;;3.50;99.90;;;;;;5034061;28;20030;-77
2022/12/01 05:50:20;;;;;;;99.65;36.78;;;3.50;99.90;;;;;;5035861;28;20061;-76
2022/12/01 05:52:45;;;;;;;113.45;39.25;;;3.40;99.90;;;;;;5034810;28;20187;-76
2022/12/01 05:55:11;;;;;;;109.70;36.67;;;3.40;99.90;;;;;;5036221;28;20492;-77
2022/12/01 05:57:37;;;;;;;114.82;39.97;;;3.50;99.90;;;;;;5036049;28;20437;-76
2022/12/01 06:00:04;;;;;;;136.85;40.33;;;3.50;99.90;;;;;;5034703;28;20437;-77
2022/12/01 06:02:30;;;;;;;113.38;38.22;;;3.40;99.90;;;;;;5034413;28;20504;-77
2022/12/01 06:04:55;;;;;;;119.30;38.40;;;3.40;99.90;;;;;;5034930;28;20025;-77
2022/12/01 06:07:24;;;;;;;119.28;39.33;;;3.40;99.90;;;;;;5033998;28;20095;-76
2022/12/01 06:09:50;;;;;;;124.85;39.92;;;3.30;99.90;;;;;;5035695;28;20026;-78
2022/12/01 06:12:15;;;;;;;119.53;38.83;;;3.30;99.90;;;;;;5030412;28;20083;-78
2022/12/01 06:14:44;;;;;;;104.60;36.67;;;3.40;99.90;;;;;;5031905;28;20013;-77
2022/12/01 06:17:10;;;;;;;101.75;34.33;;;3.30;99.90;;;;;;5031181;28;20116;-78
2022/12/01 06:19:35;;;;;;;114.03;38.20;;;3.30;99.90;;;;;;5027118;28;20120;-77
2022/12/01 06:22:01;;;;;;;124.50;37.72;;;3.40;99.90;;;;;;5025883;28;20061;-77
2022/12/01 06:24:27;;;;;;;114.60;38.40;;;3.30;99.90;;;;;;5030661;28;20110;-77
2022/12/01 06:26:52;;;;;;;111.32;37.28;;;3.30;99.90;;;;;;5020430;28;20157;-78
2022/12/01 06:29:18;;;;;;;102.15;35.15;;;3.30;99.90;;;;;;5018224;28;20526;-78
2022/12/01 06:31:43;;;;;;;131.77;40.00;;;3.20;99.90;;;;;;5017957;28;20354;-77
2022/12/01 06:34:09;;;;;;;117.88;37.78;;;3.30;99.90;;;;;;5014486;28;20030;-77
2022/12/01 06:36:35;;;;;;;119.22;41.25;;;3.30;99.90;;;;;;5015462;28;20109;-77
2022/12/01 06:39:00;;;;;;;119.28;39.13;;;3.40;99.90;;;;;;5017686;28;20037;-78
2022/12/01 06:41:26;;;;;;;114.80;38.08;;;3.40;99.90;;;;;;5019301;28;20496;-77
2022/12/01 06:43:51;;;;;;;107.63;36.97;;;3.40;99.90;;;;;;5024078;28;20018;-77
2022/12/01 06:46:17;;;;;;;121.82;40.05;;;3.30;99.90;;;;;;5019738;28;20044;-77
2022/12/01 06:48:43;;;;;;;129.90;41.42;;;3.30;99.90;;;;;;5025925;28;20032;-77
2022/12/01 06:51:08;;;;;;;129.55;39.58;;;3.30;99.90;;;;;;5026895;28;20497;-77
2022/12/01 06:53:34;;;;;;;120.80;38.60;;;3.30;99.90;;;;;;5021766;28;20374;-77
2022/12/01 06:56:01;;;;;;;124.13;38.40;;;3.20;99.90;;;;;;5017929;28;20024;-76
2022/12/01 06:58:26;;;;;;;123.60;38.03;;;3.30;99.90;;;;;;5019497;28;20072;-78
2022/12/01 07:00:52;;;;;;;112.68;36.42;;;3.20;99.90;;;;;;5034244;28;20021;-76
2022/12/01 07:03:17;;;;;;;138.57;41.80;;;3.20;99.90;;;;;;5033527;28;20128;-78
2022/12/01 07:05:43;;;;;;;114.60;38.10;;;3.10;99.90;;;;;;5031166;28;20039;-79
2022/12/01 07:08:08;;;;;;;129.07;38.70;;;3.10;99.90;;;;;;5032536;28;20351;-77
2022/12/01 07:10:36;;;;;;;143.07;39.60;;;3.20;99.90;;;;;;5035657;28;20108;-76
2022/12/01 07:13:01;;;;;;;130.20;38.67;;;3.20;99.90;;;;;;5045227;28;20033;-77
2022/12/01 07:15:27;;;;;;;119.55;38.92;;;3.20;99.90;;;;;;5045475;28;20036;-76
2022/12/01 07:17:53;;;;;;;131.57;41.17;;;3.20;99.90;;;;;;5045242;28;20047;-78
2022/12/01 07:20:18;;;;;;;132.40;39.22;;;3.20;99.90;;;;;;5045446;28;20033;-78
2022/12/01 07:22:44;;;;;;;132.38;38.70;;;3.20;99.90;;;;;;5044120;28;20029;-78
2022/12/01 07:25:10;;;;;;;132.70;40.03;;;3.20;99.90;;;;;;5038072;28;20029;-79
2022/12/01 07:27:35;;;;;;;140.55;41.08;;;3.30;99.90;;;;;;5032174;28;20056;-78
2022/12/01 07:30:01;;;;;;;121.55;38.38;;;3.20;99.90;;;;;;5033896;28;20024;-77
2022/12/01 07:32:26;;;;;;;121.88;39.50;;;3.30;99.90;;;;;;5032133;28;20087;-77
2022/12/01 07:34:52;;;;;;;127.78;40.17;;;3.30;99.90;;;;;;5034926;28;20049;-77
2022/12/01 07:37:18;;;;;;;131.60;41.65;;;3.40;99.90;;;;;;5031721;28;20018;-78
2022/12/01 07:39:43;;;;;;;127.22;39.60;;;3.30;99.90;;;;;;5029401;28;20019;-78
2022/12/01 07:42:09;;;;;;;127.82;40.35;;;3.30;99.90;;;;;;5030121;28;20465;-78
2022/12/01 07:44:37;;;;;;;126.10;39.35;;;3.40;99.90;;;;;;5032269;28;20087;-77
2022/12/01 07:47:02;;;;;;;116.65;37.60;;;3.40;99.90;;;;;;5028213;28;20484;-78
2022/12/01 07:49:28;;;;;;;124.60;38.50;;;3.30;99.90;;;;;;5026248;28;20052;-78
2022/12/01 07:51:53;;;;;;;112.90;37.25;;;2.90;99.90;;;;;;5026149;28;20022;-77
2022/12/01 07:54:20;;;;;;;135.85;40.90;;;3.30;99.90;;;;;;5023346;28;20116;-77
2022/12/01 07:56:45;;;;;;;118.10;37.55;;;3.20;99.90;;;;;;5028536;28;20444;-77
2022/12/01 07:59:11;;;;;;;126.35;39.60;;;3.30;99.90;;;;;;5034599;28;20068;-79
2022/12/01 08:01:37;;;;;;;127.70;41.75;;;3.30;99.90;;;;;;5034520;28;20493;-78
2022/12/01 08:04:03;;;;;;;129.90;39.42;;;3.30;99.90;;;;;;5040306;28;20029;-78
2022/12/01 08:06:28;;;;;;;132.43;40.70;;;3.30;99.90;;;;;;5035376;28;20036;-76
2022/12/01 08:08:54;;;;;;;114.22;36.50;;;3.30;99.90;;;;;;5034347;28;20032;-78
2022/12/01 08:11:25;;;;;;;136.45;40.47;;;3.30;99.90;;;;;;5033949;28;20036;-77
2022/12/01 08:13:51;;;;;;;104.50;36.13;;;3.30;99.90;;;;;;5033181;28;20025;-80
2022/12/01 08:16:19;;;;;;;105.57;34.42;;;3.30;99.90;;;;;;5034781;28;20026;-78
2022/12/01 08:18:45;;;;;;;122.85;38.38;;;3.30;99.90;;;;;;5034612;28;20054;-78
2022/12/01 08:21:16;;;;;;;118.68;37.63;;;3.30;99.90;;;;;;5032412;28;20136;-79
2022/12/01 08:23:42;;;;;;;;;;;3.30;99.90;;;;;;5034043;28;20064;-79
2022/12/01 08:26:13;;;;;;;111.07;36.55;;;3.30;99.90;;;;;;5025753;28;19909;-77
2022/12/01 08:28:40;;;;;;;121.57;37.92;;;3.30;99.90;;;;;;5030883;28;20061;-76
2022/12/01 08:31:11;;;;;;;119.63;38.97;;;3.40;99.90;;;;;;5033542;28;20033;-77
2022/12/01 08:33:37;;;;;;;107.35;34.97;;;3.40;99.90;;;;;;5031573;28;20045;-76
2022/12/01 08:36:04;;;;;;;125.00;37.20;;;3.30;99.90;;;;;;5028065;28;20397;-76
2022/12/01 08:38:31;;;;;;;118.93;38.45;;;3.40;99.90;;;;;;5023301;28;20026;-76
2022/12/01 08:41:06;;;;;;;115.20;36.90;;;3.40;99.90;;;;;;5028724;28;20478;-75
2022/12/01 08:43:31;;;;;;;124.40;39.25;;;3.40;99.90;;;;;;5025789;28;20494;-78
2022/12/01 08:46:01;;;;;;;114.60;37.15;;;3.40;99.90;;;;;;5042727;28;20032;-78
2022/12/01 08:48:30;;;;;;;124.38;40.42;;;3.50;99.90;;;;;;5020098;28;20033;-80
2022/12/01 08:51:03;;;;;;;123.78;40.88;;;3.50;99.90;;;;;;5030429;28;20021;-77
2022/12/01 08:53:30;;;;;;;115.80;37.70;;;3.60;99.90;;;;;;5037281;28;20033;-85
2022/12/01 08:56:00;;;;;;;105.43;36.35;;;3.60;99.90;;;;;;5037757;28;20064;-79
2022/12/01 08:58:27;;;;;;;110.88;37.85;;;3.60;99.90;;;;;;5038617;28;20025;-78
2022/12/01 09:00:52;;;;;;;118.13;39.20;;;3.70;99.90;;;;;;5037904;28;20088;-74
2022/12/01 09:03:18;;;;;;;111.13;35.08;;;3.70;99.90;;;;;;5044681;28;20017;-76
2022/12/01 09:05:43;;;;;;;105.60;36.45;;;3.70;99.90;;;;;;5035881;28;20069;-79
2022/12/01 09:10:53;;;;;;;106.18;35.15;;;3.80;99.90;;;;;;5049573;28;20043;-78
2022/12/01 09:13:18;;;;;;;99.78;35.33;;;3.80;99.90;;;;;;5050188;28;20101;-79
2022/12/01 09:15:52;;;;;;;104.63;36.80;;;3.90;99.90;;;;;;5049709;28;20111;-79
2022/12/01 09:18:18;;;;;;;117.13;38.70;;;4.00;99.90;;;;;;5040582;28;20065;-78
2022/12/01 09:20:44;;;;;;;105.32;36.95;;;4.10;99.90;;;;;;5036811;28;20026;-78
2022/12/01 09:23:09;;;;;;;101.95;37.25;;;4.10;99.90;;;;;;5036123;28;20022;-79
2022/12/01 09:25:35;;;;;;;99.50;35.90;;;4.30;99.90;;;;;;5036060;28;20017;-79
2022/12/01 09:28:00;;;;;;;107.93;36.83;;;4.30;99.90;;;;;;5035341;28;20053;-78
2022/12/01 09:30:26;;;;;;;113.57;38.95;;;4.30;99.90;;;;;;5033639;28;20053;-77
2022/12/01 09:32:51;;;;;;;98.57;36.90;;;4.60;99.90;;;;;;5034207;28;20235;-78
2022/12/01 09:35:17;;;;;;;106.72;37.45;;;4.40;99.90;;;;;;5035411;28;20029;-76
2022/12/01 09:37:42;;;;;;;103.97;37.92;;;4.50;99.90;;;;;;5037171;28;20121;-78
2022/12/01 09:40:12;;;;;;;103.63;38.08;;;4.50;99.90;;;;;;5032738;28;20545;-79
2022/12/01 09:42:39;;;;;;;115.97;40.58;;;4.60;99.90;;;;;;5034688;28;20021;-78
2022/12/01 09:45:06;;;;;;;108.38;39.90;;;4.60;99.90;;;;;;5035256;28;20069;-80
2022/12/01 09:47:36;;;;;;;102.88;36.58;;;4.60;99.90;;;;;;5035687;28;20021;-78
2022/12/01 09:50:04;;;;;;;113.07;40.97;;;4.60;99.90;;;;;;5035975;28;20021;-79
2022/12/01 09:52:55;;;;;;;97.78;38.75;;;4.70;99.90;;;;;;5021827;28;20042;-78
2022/12/01 09:55:23;;;;;;;116.45;40.45;;;4.60;99.90;;;;;;5035350;28;20033;-78
2022/12/01 09:57:52;;;;;;;103.78;41.13;;;4.80;99.90;;;;;;5036347;28;20034;-78
2022/12/01 10:00:21;;;;;;;110.50;40.97;;;4.70;99.90;;;;;;5036329;28;20022;-79
2022/12/01 10:02:53;;;;;;;110.03;40.63;;;4.80;99.90;;;;;;5036826;28;20025;-77
2022/12/01 10:05:21;;;;;;;118.32;41.88;;;5.00;99.90;;;;;;5027481;28;20029;-80
2022/12/01 10:07:53;;;;;;;110.95;40.63;;;5.00;99.90;;;;;;5035488;28;20493;-77
2022/12/01 10:10:49;;;;;;;108.80;39.72;;;5.10;99.90;;;;;;5035900;28;20454;-78
2022/12/01 10:13:23;;;;;;;106.22;39.83;;;5.20;99.90;;;;;;5035149;28;20034;-78
2022/12/01 10:16:11;;;;;;;117.60;41.25;;;5.20;99.90;;;;;;5036455;28;20473;-79
2022/12/01 10:19:12;;;;;;;106.80;40.13;;;5.30;99.90;;;;;;5036447;28;20385;-78
2022/12/01 10:21:58;;;;;;;110.03;41.75;;;5.30;99.90;;;;;;5035227;28;20036;-80
2022/12/01 10:25:08;;;;;;;105.65;39.67;;;5.40;99.90;;;;;;5036464;28;20474;-78
2022/12/01 10:28:03;;;;;;;111.63;41.28;;;5.50;99.90;;;;;;5035550;28;20073;-77
2022/12/01 10:30:29;;;;;;;106.78;38.33;;;5.60;99.90;;;;;;5034003;28;20022;-79
2022/12/01 10:33:03;;;;;;;107.38;41.42;;;5.70;99.90;;;;;;5036272;28;20037;-78
2022/12/01 10:35:35;;;;;;;102.32;39.35;;;5.70;99.90;;;;;;5042670;28;20018;-78
2022/12/01 10:38:05;;;;;;;112.00;40.10;;;5.80;99.90;;;;;;5047438;28;20041;-80
2022/12/01 10:40:34;;;;;;;105.80;40.53;;;5.80;99.90;;;;;;5032113;28;20033;-77
2022/12/01 10:43:00;;;;;;;98.65;40.00;;;5.90;99.90;;;;;;5034472;28;20524;-76
2022/12/01 10:45:30;;;;;;;96.70;41.00;;;5.90;99.90;;;;;;5027827;28;20061;-79
2022/12/01 10:48:15;;;;;;;105.07;40.05;;;5.90;99.90;;;;;;5028618;28;20072;-76
2022/12/01 10:50:50;;;;;;;96.05;40.28;;;6.00;99.90;;;;;;5025451;28;20021;-77
2022/12/01 10:53:22;;;;;;;102.63;41.97;;;6.10;99.90;;;;;;5035452;28;20102;-78
2022/12/01 10:55:56;;;;;;;88.35;35.30;;;6.10;99.90;;;;;;5035019;28;20024;-78
2022/12/01 10:58:22;;;;;;;88.40;36.40;;;6.10;99.90;;;;;;5035731;28;20030;-78
2022/12/01 11:01:01;;;;;;;91.85;37.95;;;6.20;99.90;;;;;;5034749;28;20381;-77
2022/12/01 11:03:33;;;;;;;90.65;38.67;;;6.20;99.90;;;;;;5029692;28;20482;-77
2022/12/01 11:06:01;;;;;;;96.93;37.78;;;6.30;99.90;;;;;;5021110;28;20072;-77
2022/12/01 11:08:43;;;;;;;99.65;39.25;;;6.30;99.90;;;;;;5035391;28;20025;-78
2022/12/01 11:11:23;;;;;;;91.03;37.25;;;6.30;99.90;;;;;;5034316;28;20034;-78
2022/12/01 11:13:49;;;;;;;87.70;35.63;;;6.40;99.90;;;;;;5036233;28;20025;-78
2022/12/01 11:16:52;;;;;;;88.82;33.70;;;6.40;99.90;;;;;;5034965;28;20034;-78
2022/12/01 11:19:31;;;;;;;73.97;33.70;;;7.80;99.90;;;;;;5008283;28;20022;-77
2022/12/01 11:22:31;;;;;;;84.07;34.72;;;6.50;99.90;;;;;;5033191;28;20030;-78
2022/12/01 11:25:04;;;;;;;84.40;37.03;;;6.50;99.90;;;;;;5037857;28;20021;-79
2022/12/01 11:27:48;;;;;;;75.82;33.92;;;6.60;99.90;;;;;;5038096;28;20052;-78
2022/12/01 11:30:25;;;;;;;78.00;33.15;;;6.60;99.90;;;;;;5035660;28;20029;-78
2022/12/01 11:32:54;;;;;;;79.13;34.35;;;6.70;99.90;;;;;;5027020;28;20399;-78
2022/12/01 11:35:25;;;;;;;80.57;35.05;;;6.70;99.90;;;;;;5023347;28;20040;-77
2022/12/01 11:37:54;;;;;;;73.43;34.15;;;6.80;99.90;;;;;;5021983;28;20030;-77
2022/12/01 11:40:27;;;;;;;75.70;32.45;;;6.80;99.90;;;;;;5035777;28;20037;-77
2022/12/01 11:42:59;;;;;;;72.00;32.17;;;6.80;99.90;;;;;;5035707;28;20111;-78
2022/12/01 11:45:38;;;;;;;80.90;37.67;;;6.80;99.90;;;;;;5033004;28;20022;-78
2022/12/01 11:48:19;;;;;;;71.82;34.13;;;6.80;99.90;;;;;;5036461;28;20432;-78
2022/12/01 11:51:01;;;;;;;69.22;32.63;;;6.80;99.90;;;;;;5033747;28;20021;-78
2022/12/01 11:53:36;;;;;;;73.93;33.47;;;6.90;99.90;;;;;;5037487;28;20049;-77
2022/12/01 11:56:15;;;;;;;75.60;35.08;;;6.90;99.90;;;;;;5034918;28;20044;-78
2022/12/01 11:58:46;;;;;;;67.72;31.80;;;7.00;99.90;;;;;;5033765;28;20025;-77
2022/12/01 12:01:39;;;;;;;66.60;31.52;;;7.00;99.90;;;;;;5034274;28;20040;-78
2022/12/01 12:04:20;;;;;;;66.40;32.47;;;7.10;99.90;;;;;;5033950;28;20466;-78
2022/12/01 12:07:13;;;;;;;63.05;30.48;;;7.10;99.90;;;;;;5033901;28;20109;-78
2022/12/01 12:09:50;;;;;;;64.25;31.67;;;7.10;99.90;;;;;;5033396;28;20064;-78
2022/12/01 12:12:33;;;;;;;61.50;29.65;;;7.10;99.90;;;;;;5028651;28;20033;-79
2022/12/01 12:15:40;;;;;;;60.03;28.55;;;7.10;99.90;;;;;;5026494;28;20447;-78
2022/12/01 12:18:27;;;;;;;61.28;27.50;;;7.10;99.90;;;;;;5031317;28;20028;-79
2022/12/01 12:21:08;;;;;;;56.72;28.73;;;7.10;99.90;;;;;;5029221;28;20385;-78
2022/12/01 12:23:48;;;;;;;62.53;28.85;;;7.10;99.90;;;;;;5035860;28;20033;-78
2022/12/01 12:26:27;;;;;;;56.53;28.13;;;7.00;99.90;;;;;;5034731;28;20026;-78
2022/12/01 12:28:58;;;;;;;60.72;29.50;;;7.10;99.90;;;;;;5050701;28;20033;-78
2022/12/01 12:32:05;;;;;;;56.42;27.17;;;7.10;99.90;;;;;;5037571;28;20069;-78
2022/12/01 12:35:01;;;;;;;55.03;26.42;;;7.10;99.90;;;;;;5032522;28;20029;-79
2022/12/01 12:37:38;;;;;;;57.50;26.60;;;7.10;99.90;;;;;;5031145;28;20095;-77
2022/12/01 12:40:31;;;;;;;61.25;27.75;;;7.00;99.90;;;;;;5035843;28;20090;-79
2022/12/01 12:43:24;;;;;;;59.72;27.17;;;7.00;99.90;;;;;;5032845;28;20031;-77
2022/12/01 12:46:00;;;;;;;58.50;27.40;;;7.00;99.90;;;;;;5033902;28;20091;-78
2022/12/01 12:48:49;;;;;;;53.20;27.27;;;7.00;99.90;;;;;;5033057;28;20018;-78
2022/12/01 12:51:18;;;;;;;52.50;26.45;;;7.00;99.90;;;;;;5034463;28;20053;-78
2022/12/01 12:53:53;;;;;;;54.22;27.17;;;7.10;99.90;;;;;;5037079;28;20156;-78
2022/12/01 12:56:23;;;;;;;56.83;26.23;;;7.10;99.90;;;;;;5026078;28;20017;-78